Afanasiy Matyushenko — EOIA — position and weather

sailwx.info

Track history (hours):
 
Tides and Currents Weather Stations Pressure Air Temp Water Temp Dewpoint Dewpoint Depression Visibility Wind Speed Wind Dir Waves Ship Positions

Afanasiy Matyushenko

Last reported at 2018-Apr-10 12:28 UTC. Time now 2018-Apr-25 02:28 UTC.
Position N 46°21' E 031°22'.
Warning: this ship's position is 14 days out of date.

Length 114 m; draft 3.8 m.

Type: Cargo ship. MMSI: 272076000.

Date/timePositionNaut miles runAvg speedWind from/ knotsBaromVisibWave heightAir tempDewpointWater temp
2018-Apr-10 12:28N 46°21' E 031°22'6 8.0
2018-Apr-10 11:42N 46°27' E 031°24'1 7.9
2018-Apr-10 11:30N 46°29' E 031°25'11 5.5
2018-Apr-10 09:31N 46°35' E 031°37'0 6.0
2018-Apr-10 09:29N 46°35' E 031°38'3 5.9
2018-Apr-10 08:59N 46°36' E 031°42'1 1.8
2018-Apr-10 08:24N 46°36' E 031°43'0 0.0
2018-Apr-10 08:00N 46°36' E 031°43'0 0.0
2018-Apr-10 07:06N 46°36' E 031°43'0 0.0
2018-Apr-10 07:00N 46°36' E 031°43'0 0.0
2018-Apr-10 06:24N 46°36' E 031°43'0 0.0
2018-Apr-10 05:54N 46°36' E 031°43'0 0.0
2018-Apr-10 05:30N 46°36' E 031°43'0 0.0
2018-Apr-10 05:00N 46°36' E 031°43'0 0.0
2018-Apr-10 04:30N 46°36' E 031°43'0 0.0
2018-Apr-10 03:48N 46°36' E 031°43'0 0.0
2018-Apr-10 03:30N 46°36' E 031°43'0 0.0
2018-Apr-10 03:00N 46°36' E 031°43'0 0.0
2018-Apr-10 02:12N 46°36' E 031°43'0 0.0
2018-Apr-10 01:57N 46°36' E 031°43'0 0.0
2018-Apr-10 01:27N 46°36' E 031°43'0 0.0
2018-Apr-10 01:00N 46°36' E 031°43'0 0.0
2018-Apr-10 00:30N 46°36' E 031°43'0 0.0
2018-Apr-09 23:51N 46°36' E 031°43'0 0.0
2018-Apr-09 23:24N 46°36' E 031°43'0 0.0
2018-Apr-09 23:00N 46°36' E 031°43'0 0.0
2018-Apr-09 22:30N 46°36' E 031°43'0 0.0
2018-Apr-09 21:48N 46°36' E 031°43'0 0.0
2018-Apr-09 21:30N 46°36' E 031°43'0 0.0
2018-Apr-09 21:00N 46°36' E 031°43'0 0.0
2018-Apr-09 17:30N 46°36' E 031°43'0 0.0
2018-Apr-09 12:24N 46°36' E 031°43'0 0.0
2018-Apr-09 12:00N 46°36' E 031°43'0 0.0
2018-Apr-09 11:30N 46°36' E 031°43'0 0.0
2018-Apr-09 10:54N 46°36' E 031°43'0 0.0
2018-Apr-09 10:24N 46°36' E 031°43'0 0.0
2018-Apr-09 10:00N 46°36' E 031°43'0 0.0
2018-Apr-09 08:36N 46°36' E 031°43'0 0.0
2018-Apr-09 08:18N 46°36' E 031°43'0 0.0
2018-Apr-09 07:54N 46°36' E 031°43'0 0.0
2018-Apr-09 07:30N 46°36' E 031°43'0 0.0
2018-Apr-09 07:00N 46°36' E 031°43'0 0.0
2018-Apr-09 06:30N 46°36' E 031°43'0 0.0
2018-Apr-08 19:36N 46°36' E 031°43'0 0.0
2018-Apr-08 19:12N 46°36' E 031°43'0 0.0
2018-Apr-08 18:42N 46°36' E 031°43'0 0.1
2018-Apr-08 18:30N 46°36' E 031°43'0 0.0
2018-Apr-08 17:57N 46°36' E 031°43'0 0.0
2018-Apr-08 17:30N 46°36' E 031°43'0 0.0
2018-Apr-08 15:04N 46°36' E 031°43'0 2.4
2018-Apr-08 14:59N 46°36' E 031°43'3 7.2
2018-Apr-08 14:30N 46°36' E 031°48'4 7.7
2018-Apr-08 14:00N 46°34' E 031°54'4 7.7
2018-Apr-08 13:30N 46°33' E 031°59'4 7.8
2018-Apr-08 12:58N 46°32' E 032°05'135 5.0
2018-Apr-07 10:08N 47°34' E 035°01'6 7.6
2018-Apr-07 09:21N 47°39' E 035°06'3 8.2
2018-Apr-07 09:00N 47°42' E 035°08'4 7.6
2018-Apr-07 08:30N 47°45' E 035°10'4 7.6
2018-Apr-07 08:00N 47°49' E 035°09'3 6.8
2018-Apr-07 07:30N 47°51' E 035°05'1 1.3
2018-Apr-07 07:00N 47°52' E 035°05'0 0.0
2018-Apr-07 06:30N 47°52' E 035°05'2 3.4
2018-Apr-07 06:00N 47°53' E 035°06'0 0.3
2018-Apr-07 05:29N 47°54' E 035°06'0 0.0
2018-Apr-07 04:59N 47°54' E 035°06'0 0.0
2018-Apr-07 04:29N 47°54' E 035°06'0 0.0
2018-Apr-07 03:59N 47°54' E 035°06'0 0.0
2018-Apr-07 03:29N 47°54' E 035°06'0 0.0
2018-Apr-07 02:59N 47°54' E 035°06'0 0.0
2018-Apr-07 02:29N 47°54' E 035°06'0 0.0
2018-Apr-07 01:59N 47°54' E 035°06'0 0.0
2018-Apr-07 01:29N 47°54' E 035°06'0 0.0
2018-Apr-07 00:59N 47°54' E 035°06'0 0.0
2018-Apr-07 00:29N 47°54' E 035°06'0 0.0
2018-Apr-06 23:59N 47°54' E 035°06'0 0.0
2018-Apr-06 23:29N 47°54' E 035°06'0 0.0
2018-Apr-06 22:59N 47°54' E 035°06'0 0.0
2018-Apr-06 22:29N 47°54' E 035°06'0 0.0
2018-Apr-06 21:59N 47°54' E 035°06'0 0.0
2018-Apr-06 21:29N 47°54' E 035°06'0 0.0
2018-Apr-06 20:59N 47°54' E 035°06'0 0.0
2018-Apr-06 20:29N 47°54' E 035°06'0 0.0
2018-Apr-06 19:59N 47°54' E 035°06'0 0.0
2018-Apr-06 19:29N 47°54' E 035°06'0 0.0
2018-Apr-06 18:59N 47°54' E 035°06'0 0.0
2018-Apr-06 18:29N 47°54' E 035°06'0 0.3
2018-Apr-06 18:00N 47°54' E 035°06'4 7.5
2018-Apr-06 17:30N 47°57' E 035°07'4 8.0
2018-Apr-06 17:00N 48°01' E 035°08'  
2018-Apr-03 05:03N 48°02' E 035°07'0 5.6
2018-Apr-03 05:00N 48°02' E 035°08'3 5.5
2018-Apr-03 04:30N 47°59' E 035°08'3 5.9
2018-Apr-03 04:00N 47°56' E 035°07'3 5.8
2018-Apr-03 03:30N 47°54' E 035°06'2 3.0
2018-Apr-03 03:00N 47°52' E 035°06'0 0.0
2018-Apr-03 02:28N 47°52' E 035°06'0 0.0
2018-Apr-03 01:58N 47°52' E 035°06'0 0.0
2018-Apr-03 01:28N 47°52' E 035°06'0 0.0
2018-Apr-03 00:58N 47°52' E 035°06'0 0.0
2018-Apr-03 00:28N 47°52' E 035°06'0 0.0
2018-Apr-02 23:58N 47°52' E 035°06'0 0.0
2018-Apr-02 23:28N 47°52' E 035°06'0 0.0
2018-Apr-02 22:58N 47°52' E 035°06'0 0.0
2018-Apr-02 22:28N 47°52' E 035°06'0 0.0
2018-Apr-02 21:58N 47°52' E 035°06'0 0.0
2018-Apr-02 21:28N 47°52' E 035°06'0 0.0
2018-Apr-02 20:58N 47°52' E 035°06'0 0.0
2018-Apr-02 20:28N 47°52' E 035°06'0 0.0
2018-Apr-02 19:58N 47°52' E 035°06'0 0.0
2018-Apr-02 19:28N 47°52' E 035°06'0 0.0
2018-Apr-02 18:58N 47°52' E 035°06'0 0.0
2018-Apr-02 18:28N 47°52' E 035°06'0 0.0
2018-Apr-02 17:58N 47°52' E 035°06'0 0.0
2018-Apr-02 17:28N 47°52' E 035°06'0 0.0
2018-Apr-02 16:58N 47°52' E 035°06'0 0.0
2018-Apr-02 16:28N 47°52' E 035°06'0 0.0
2018-Apr-02 15:58N 47°52' E 035°06'0 0.0
2018-Apr-02 15:28N 47°52' E 035°06'0 0.0
2018-Apr-02 14:58N 47°52' E 035°06'0 0.0
2018-Apr-02 14:28N 47°52' E 035°06'0 0.0
2018-Apr-02 13:58N 47°52' E 035°06'0 0.0
2018-Apr-02 13:28N 47°52' E 035°06'0 0.0
2018-Apr-02 12:58N 47°52' E 035°06'0 0.0
2018-Apr-02 12:28N 47°52' E 035°06'0 0.0
2018-Apr-02 11:58N 47°52' E 035°06'0 0.0
2018-Apr-02 11:28N 47°52' E 035°06'0 0.0
2018-Apr-02 10:58N 47°52' E 035°06'0 0.0
2018-Apr-02 10:28N 47°52' E 035°06'0 0.0
2018-Apr-02 09:58N 47°52' E 035°06'0 0.0
2018-Apr-02 09:28N 47°52' E 035°06'0 0.0
2018-Apr-02 08:58N 47°52' E 035°06'0 0.0
2018-Apr-02 08:28N 47°52' E 035°06'0 0.0
2018-Apr-02 07:58N 47°52' E 035°06'0 0.0
2018-Apr-02 07:28N 47°52' E 035°06'0 0.0
2018-Apr-02 06:58N 47°52' E 035°06'0 0.0
2018-Apr-02 06:28N 47°52' E 035°06'0 0.0
2018-Apr-02 05:58N 47°52' E 035°06'0 0.0
2018-Apr-02 05:28N 47°52' E 035°06'0 0.0
2018-Apr-02 04:58N 47°52' E 035°06'0 0.0
2018-Apr-02 04:28N 47°52' E 035°06'0 0.0
2018-Apr-02 03:58N 47°52' E 035°06'0 0.0
2018-Apr-02 03:28N 47°52' E 035°06'0 0.0
2018-Apr-02 02:58N 47°52' E 035°06'0 0.0
2018-Apr-02 02:28N 47°52' E 035°06'0 0.0
2018-Apr-02 01:58N 47°52' E 035°06'0 0.0
2018-Apr-02 01:28N 47°52' E 035°06'0 0.0
2018-Apr-02 00:58N 47°52' E 035°06'0 0.0
2018-Apr-02 00:28N 47°52' E 035°06'0 0.0
2018-Apr-01 23:58N 47°52' E 035°06'0 0.0
2018-Apr-01 23:28N 47°52' E 035°06'0 0.0
2018-Apr-01 22:58N 47°52' E 035°06'0 0.0
2018-Apr-01 22:28N 47°52' E 035°06'0 0.0
2018-Apr-01 21:58N 47°52' E 035°06'0 0.0
2018-Apr-01 21:28N 47°52' E 035°06'0 0.0
2018-Apr-01 20:58N 47°52' E 035°06'0 0.0
2018-Apr-01 20:28N 47°52' E 035°06'0 0.0
2018-Apr-01 19:58N 47°52' E 035°06'0 0.0
2018-Apr-01 19:28N 47°52' E 035°06'0 0.0
2018-Apr-01 18:58N 47°52' E 035°06'0 0.0
2018-Apr-01 18:28N 47°52' E 035°06'0 0.0
2018-Apr-01 17:58N 47°52' E 035°06'0 0.0
2018-Apr-01 17:22N 47°52' E 035°06'0 0.0
2018-Apr-01 16:58N 47°52' E 035°06'0 0.0
2018-Apr-01 16:28N 47°52' E 035°06'0 0.0
2018-Apr-01 15:58N 47°52' E 035°06'0 0.0
2018-Apr-01 15:28N 47°52' E 035°06'0 0.0
2018-Apr-01 14:58N 47°52' E 035°06'0 0.0
2018-Apr-01 14:28N 47°52' E 035°06'0 0.0
2018-Apr-01 13:58N 47°52' E 035°06'0 0.0
2018-Apr-01 13:28N 47°52' E 035°06'0 0.0
2018-Apr-01 12:58N 47°52' E 035°06'0 0.0
2018-Apr-01 12:28N 47°52' E 035°06'0 0.0
2018-Apr-01 11:58N 47°52' E 035°06'1 1.2
2018-Apr-01 11:30N 47°52' E 035°06'0 0.2
2018-Apr-01 10:59N 47°52' E 035°05'1 2.8
2018-Apr-01 10:30N 47°50' E 035°05'3 6.7
2018-Apr-01 10:00N 47°48' E 035°09'3 6.4
2018-Apr-01 09:30N 47°45' E 035°10'3 6.2
2018-Apr-01 09:00N 47°42' E 035°08'  
Track history (hours):
 
Tides and Currents Weather Stations Pressure Air Temp Water Temp Dewpoint Dewpoint Depression Visibility Wind Speed Wind Dir Waves Ship Positions

Afanasiy Matyushenko

Last reported at 2018-Apr-10 12:28 UTC. Time now 2018-Apr-25 02:28 UTC.
Position N 46°21' E 031°22'.
Warning: this ship's position is 14 days out of date.

Length 114 m; draft 3.8 m.

Type: Cargo ship. MMSI: 272076000.

Date/timePositionNaut miles runAvg speedWind from/ knotsBaromVisibWave heightAir tempDewpointWater temp
2018-Apr-10 12:28N 46°21' E 031°22'6 8.0
2018-Apr-10 11:42N 46°27' E 031°24'1 7.9
2018-Apr-10 11:30N 46°29' E 031°25'11 5.5
2018-Apr-10 09:31N 46°35' E 031°37'0 6.0
2018-Apr-10 09:29N 46°35' E 031°38'3 5.9
2018-Apr-10 08:59N 46°36' E 031°42'1 1.8
2018-Apr-10 08:24N 46°36' E 031°43'0 0.0
2018-Apr-10 08:00N 46°36' E 031°43'0 0.0
2018-Apr-10 07:06N 46°36' E 031°43'0 0.0
2018-Apr-10 07:00N 46°36' E 031°43'0 0.0
2018-Apr-10 06:24N 46°36' E 031°43'0 0.0
2018-Apr-10 05:54N 46°36' E 031°43'0 0.0
2018-Apr-10 05:30N 46°36' E 031°43'0 0.0
2018-Apr-10 05:00N 46°36' E 031°43'0 0.0
2018-Apr-10 04:30N 46°36' E 031°43'0 0.0
2018-Apr-10 03:48N 46°36' E 031°43'0 0.0
2018-Apr-10 03:30N 46°36' E 031°43'0 0.0
2018-Apr-10 03:00N 46°36' E 031°43'0 0.0
2018-Apr-10 02:12N 46°36' E 031°43'0 0.0
2018-Apr-10 01:57N 46°36' E 031°43'0 0.0
2018-Apr-10 01:27N 46°36' E 031°43'0 0.0
2018-Apr-10 01:00N 46°36' E 031°43'0 0.0
2018-Apr-10 00:30N 46°36' E 031°43'0 0.0
2018-Apr-09 23:51N 46°36' E 031°43'0 0.0
2018-Apr-09 23:24N 46°36' E 031°43'0 0.0
2018-Apr-09 23:00N 46°36' E 031°43'0 0.0
2018-Apr-09 22:30N 46°36' E 031°43'0 0.0
2018-Apr-09 21:48N 46°36' E 031°43'0 0.0
2018-Apr-09 21:30N 46°36' E 031°43'0 0.0
2018-Apr-09 21:00N 46°36' E 031°43'0 0.0
2018-Apr-09 17:30N 46°36' E 031°43'0 0.0
2018-Apr-09 12:24N 46°36' E 031°43'0 0.0
2018-Apr-09 12:00N 46°36' E 031°43'0 0.0
2018-Apr-09 11:30N 46°36' E 031°43'0 0.0
2018-Apr-09 10:54N 46°36' E 031°43'0 0.0
2018-Apr-09 10:24N 46°36' E 031°43'0 0.0
2018-Apr-09 10:00N 46°36' E 031°43'0 0.0
2018-Apr-09 08:36N 46°36' E 031°43'0 0.0
2018-Apr-09 08:18N 46°36' E 031°43'0 0.0
2018-Apr-09 07:54N 46°36' E 031°43'0 0.0
2018-Apr-09 07:30N 46°36' E 031°43'0 0.0
2018-Apr-09 07:00N 46°36' E 031°43'0 0.0
2018-Apr-09 06:30N 46°36' E 031°43'0 0.0
2018-Apr-08 19:36N 46°36' E 031°43'0 0.0
2018-Apr-08 19:12N 46°36' E 031°43'0 0.0
2018-Apr-08 18:42N 46°36' E 031°43'0 0.1
2018-Apr-08 18:30N 46°36' E 031°43'0 0.0
2018-Apr-08 17:57N 46°36' E 031°43'0 0.0
2018-Apr-08 17:30N 46°36' E 031°43'0 0.0
2018-Apr-08 15:04N 46°36' E 031°43'0 2.4
2018-Apr-08 14:59N 46°36' E 031°43'3 7.2
2018-Apr-08 14:30N 46°36' E 031°48'4 7.7
2018-Apr-08 14:00N 46°34' E 031°54'4 7.7
2018-Apr-08 13:30N 46°33' E 031°59'4 7.8
2018-Apr-08 12:58N 46°32' E 032°05'135 5.0
2018-Apr-07 10:08N 47°34' E 035°01'6 7.6
2018-Apr-07 09:21N 47°39' E 035°06'3 8.2
2018-Apr-07 09:00N 47°42' E 035°08'4 7.6
2018-Apr-07 08:30N 47°45' E 035°10'4 7.6
2018-Apr-07 08:00N 47°49' E 035°09'3 6.8
2018-Apr-07 07:30N 47°51' E 035°05'1 1.3
2018-Apr-07 07:00N 47°52' E 035°05'0 0.0
2018-Apr-07 06:30N 47°52' E 035°05'2 3.4
2018-Apr-07 06:00N 47°53' E 035°06'0 0.3
2018-Apr-07 05:29N 47°54' E 035°06'0 0.0
2018-Apr-07 04:59N 47°54' E 035°06'0 0.0
2018-Apr-07 04:29N 47°54' E 035°06'0 0.0
2018-Apr-07 03:59N 47°54' E 035°06'0 0.0
2018-Apr-07 03:29N 47°54' E 035°06'0 0.0
2018-Apr-07 02:59N 47°54' E 035°06'0 0.0
2018-Apr-07 02:29N 47°54' E 035°06'0 0.0
2018-Apr-07 01:59N 47°54' E 035°06'0 0.0
2018-Apr-07 01:29N 47°54' E 035°06'0 0.0
2018-Apr-07 00:59N 47°54' E 035°06'0 0.0
2018-Apr-07 00:29N 47°54' E 035°06'0 0.0
2018-Apr-06 23:59N 47°54' E 035°06'0 0.0
2018-Apr-06 23:29N 47°54' E 035°06'0 0.0
2018-Apr-06 22:59N 47°54' E 035°06'0 0.0
2018-Apr-06 22:29N 47°54' E 035°06'0 0.0
2018-Apr-06 21:59N 47°54' E 035°06'0 0.0
2018-Apr-06 21:29N 47°54' E 035°06'0 0.0
2018-Apr-06 20:59N 47°54' E 035°06'0 0.0
2018-Apr-06 20:29N 47°54' E 035°06'0 0.0
2018-Apr-06 19:59N 47°54' E 035°06'0 0.0
2018-Apr-06 19:29N 47°54' E 035°06'0 0.0
2018-Apr-06 18:59N 47°54' E 035°06'0 0.0
2018-Apr-06 18:29N 47°54' E 035°06'0 0.3
2018-Apr-06 18:00N 47°54' E 035°06'4 7.5
2018-Apr-06 17:30N 47°57' E 035°07'4 8.0
2018-Apr-06 17:00N 48°01' E 035°08'  
2018-Apr-03 05:03N 48°02' E 035°07'0 5.6
2018-Apr-03 05:00N 48°02' E 035°08'3 5.5
2018-Apr-03 04:30N 47°59' E 035°08'3 5.9
2018-Apr-03 04:00N 47°56' E 035°07'3 5.8
2018-Apr-03 03:30N 47°54' E 035°06'2 3.0
2018-Apr-03 03:00N 47°52' E 035°06'0 0.0
2018-Apr-03 02:28N 47°52' E 035°06'0 0.0
2018-Apr-03 01:58N 47°52' E 035°06'0 0.0
2018-Apr-03 01:28N 47°52' E 035°06'0 0.0
2018-Apr-03 00:58N 47°52' E 035°06'0 0.0
2018-Apr-03 00:28N 47°52' E 035°06'0 0.0
2018-Apr-02 23:58N 47°52' E 035°06'0 0.0
2018-Apr-02 23:28N 47°52' E 035°06'0 0.0
2018-Apr-02 22:58N 47°52' E 035°06'0 0.0
2018-Apr-02 22:28N 47°52' E 035°06'0 0.0
2018-Apr-02 21:58N 47°52' E 035°06'0 0.0
2018-Apr-02 21:28N 47°52' E 035°06'0 0.0
2018-Apr-02 20:58N 47°52' E 035°06'0 0.0
2018-Apr-02 20:28N 47°52' E 035°06'0 0.0
2018-Apr-02 19:58N 47°52' E 035°06'0 0.0
2018-Apr-02 19:28N 47°52' E 035°06'0 0.0
2018-Apr-02 18:58N 47°52' E 035°06'0 0.0
2018-Apr-02 18:28N 47°52' E 035°06'0 0.0
2018-Apr-02 17:58N 47°52' E 035°06'0 0.0
2018-Apr-02 17:28N 47°52' E 035°06'0 0.0
2018-Apr-02 16:58N 47°52' E 035°06'0 0.0
2018-Apr-02 16:28N 47°52' E 035°06'0 0.0
2018-Apr-02 15:58N 47°52' E 035°06'0 0.0
2018-Apr-02 15:28N 47°52' E 035°06'0 0.0
2018-Apr-02 14:58N 47°52' E 035°06'0 0.0
2018-Apr-02 14:28N 47°52' E 035°06'0 0.0
2018-Apr-02 13:58N 47°52' E 035°06'0 0.0
2018-Apr-02 13:28N 47°52' E 035°06'0 0.0
2018-Apr-02 12:58N 47°52' E 035°06'0 0.0
2018-Apr-02 12:28N 47°52' E 035°06'0 0.0
2018-Apr-02 11:58N 47°52' E 035°06'0 0.0
2018-Apr-02 11:28N 47°52' E 035°06'0 0.0
2018-Apr-02 10:58N 47°52' E 035°06'0 0.0
2018-Apr-02 10:28N 47°52' E 035°06'0 0.0
2018-Apr-02 09:58N 47°52' E 035°06'0 0.0
2018-Apr-02 09:28N 47°52' E 035°06'0 0.0
2018-Apr-02 08:58N 47°52' E 035°06'0 0.0
2018-Apr-02 08:28N 47°52' E 035°06'0 0.0
2018-Apr-02 07:58N 47°52' E 035°06'0 0.0
2018-Apr-02 07:28N 47°52' E 035°06'0 0.0
2018-Apr-02 06:58N 47°52' E 035°06'0 0.0
2018-Apr-02 06:28N 47°52' E 035°06'0 0.0
2018-Apr-02 05:58N 47°52' E 035°06'0 0.0
2018-Apr-02 05:28N 47°52' E 035°06'0 0.0
2018-Apr-02 04:58N 47°52' E 035°06'0 0.0
2018-Apr-02 04:28N 47°52' E 035°06'0 0.0
2018-Apr-02 03:58N 47°52' E 035°06'0 0.0
2018-Apr-02 03:28N 47°52' E 035°06'0 0.0
2018-Apr-02 02:58N 47°52' E 035°06'0 0.0
2018-Apr-02 02:28N 47°52' E 035°06'0 0.0
2018-Apr-02 01:58N 47°52' E 035°06'0 0.0
2018-Apr-02 01:28N 47°52' E 035°06'0 0.0
2018-Apr-02 00:58N 47°52' E 035°06'0 0.0
2018-Apr-02 00:28N 47°52' E 035°06'0 0.0
2018-Apr-01 23:58N 47°52' E 035°06'0 0.0
2018-Apr-01 23:28N 47°52' E 035°06'0 0.0
2018-Apr-01 22:58N 47°52' E 035°06'0 0.0
2018-Apr-01 22:28N 47°52' E 035°06'0 0.0
2018-Apr-01 21:58N 47°52' E 035°06'0 0.0
2018-Apr-01 21:28N 47°52' E 035°06'0 0.0
2018-Apr-01 20:58N 47°52' E 035°06'0 0.0
2018-Apr-01 20:28N 47°52' E 035°06'0 0.0
2018-Apr-01 19:58N 47°52' E 035°06'0 0.0
2018-Apr-01 19:28N 47°52' E 035°06'0 0.0
2018-Apr-01 18:58N 47°52' E 035°06'0 0.0
2018-Apr-01 18:28N 47°52' E 035°06'0 0.0
2018-Apr-01 17:58N 47°52' E 035°06'0 0.0
2018-Apr-01 17:22N 47°52' E 035°06'0 0.0
2018-Apr-01 16:58N 47°52' E 035°06'0 0.0
2018-Apr-01 16:28N 47°52' E 035°06'0 0.0
2018-Apr-01 15:58N 47°52' E 035°06'0 0.0
2018-Apr-01 15:28N 47°52' E 035°06'0 0.0
2018-Apr-01 14:58N 47°52' E 035°06'0 0.0
2018-Apr-01 14:28N 47°52' E 035°06'0 0.0
2018-Apr-01 13:58N 47°52' E 035°06'0 0.0
2018-Apr-01 13:28N 47°52' E 035°06'0 0.0
2018-Apr-01 12:58N 47°52' E 035°06'0 0.0
2018-Apr-01 12:28N 47°52' E 035°06'0 0.0
2018-Apr-01 11:58N 47°52' E 035°06'1 1.2
2018-Apr-01 11:30N 47°52' E 035°06'0 0.2
2018-Apr-01 10:59N 47°52' E 035°05'1 2.8
2018-Apr-01 10:30N 47°50' E 035°05'3 6.7
2018-Apr-01 10:00N 47°48' E 035°09'3 6.4
2018-Apr-01 09:30N 47°45' E 035°10'3 6.2
2018-Apr-01 09:00N 47°42' E 035°08'  

Dump ship's entire track history